Hunter Army Air Field Savannah US
ICAO: KSVN
IATA: SVN
Category: Medium
Scheduled Services: No

Elevation: 41 ft
TransAlt. 18000 ft.

Airport Communications:
SAVANNAH APP/DEP:118.4
ATIS:32.312
CTAF:133.55
GND:121.8
USCG SAVANNAH AIR:34.5
ARNG OPS:38.15
PMSV METRO:30.9
PTD:126.2
TWR:46.7

KSVN Zoom In..

Runways:

(A) RW 10 length 11375 ft width 200 ft
---- / hdg 96

(B) RW 28 length 11375 ft width 200 ft
ILS 109.50 / hdg 276

Location; KSVN
Day. 11 / Time. 08.56 Zulu
* Altimeter: 29.96
* Temperature: 23° c. 73.4°f.
* Wind from: 260° Speed 03 kn.
Dewpoint: 21° c.
Visibility: 10 Statute Miles.
Clouds: Few 16000 ft.

KSVN 110856Z AUTO 26003KT 10SM FEW160 23/21 A2996 RMK AO2 SLP148 T02300214 56018 $

Going to: --> -->


Wind From 260°
Speed 03 kn.

 
 
jpsmedia worldairports.se 2020   terms of use